createdAt,value
2019-04-03T00:02:17.174Z,51.56
2019-04-03T00:05:26.818Z,51.56
2019-04-03T00:08:36.665Z,51.52
2019-04-03T00:11:45.822Z,51.66
2019-04-03T00:14:54.479Z,51.87
2019-04-03T00:18:03.140Z,51.95
2019-04-03T00:21:11.887Z,51.87
2019-04-03T00:24:22.243Z,52.00
2019-04-03T00:27:30.907Z,52.28
2019-04-03T00:30:39.543Z,52.27
2019-04-03T00:33:50.013Z,52.57
2019-04-03T00:36:58.696Z,53.01
2019-04-03T00:40:08.577Z,53.22
2019-04-03T00:43:17.181Z,53.12
2019-04-03T00:46:25.924Z,53.51
2019-04-03T00:49:34.483Z,53.70
2019-04-03T00:52:44.579Z,53.82
2019-04-03T00:55:53.253Z,53.98
2019-04-03T00:59:02.094Z,54.36
2019-04-03T01:02:10.846Z,55.08
2019-04-03T01:05:19.499Z,55.09
2019-04-03T01:08:27.822Z,55.20
2019-04-03T01:11:37.158Z,55.56
2019-04-03T01:14:45.743Z,55.49
2019-04-03T01:18:05.182Z,55.36
2019-04-03T01:21:13.899Z,55.65
2019-04-03T01:24:32.768Z,55.90
2019-04-03T01:27:42.005Z,55.96
2019-04-03T01:30:51.072Z,56.12
2019-04-03T01:33:59.847Z,56.08
2019-04-03T01:37:08.427Z,55.67
2019-04-03T01:40:27.318Z,55.81
2019-04-03T01:43:35.986Z,55.73
2019-04-03T01:46:46.047Z,55.63
2019-04-03T01:49:54.722Z,55.62
2019-04-03T01:53:03.361Z,55.65
2019-04-03T01:56:11.904Z,55.78
2019-04-03T01:59:20.712Z,56.04
2019-04-03T02:02:29.346Z,56.01
2019-04-03T02:05:38.513Z,56.11
2019-04-03T02:08:47.136Z,56.15
2019-04-03T02:11:55.776Z,56.39
2019-04-03T02:15:14.757Z,56.59
2019-04-03T02:18:24.893Z,56.87
2019-04-03T02:21:33.850Z,57.13
2019-04-03T02:24:42.490Z,57.44
2019-04-03T02:27:51.205Z,57.40
2019-04-03T02:31:05.789Z,57.94
2019-04-03T02:34:14.709Z,57.97
2019-04-03T02:37:22.945Z,58.14
2019-04-03T02:40:42.098Z,58.08
2019-04-03T02:43:50.633Z,58.14
2019-04-03T02:47:01.069Z,58.25
2019-04-03T02:50:11.560Z,58.54
2019-04-03T02:53:20.387Z,58.61
2019-04-03T02:56:29.177Z,58.85
2019-04-03T02:59:37.842Z,59.27
2019-04-03T03:02:46.561Z,59.22
2019-04-03T03:05:55.294Z,59.74
2019-04-03T03:09:05.326Z,59.64
2019-04-03T03:12:13.941Z,59.65
2019-04-03T03:15:23.414Z,59.71
2019-04-03T03:18:32.270Z,59.42
2019-04-03T03:21:44.061Z,59.04
2019-04-03T03:24:52.382Z,58.89
2019-04-03T03:28:01.246Z,58.83
2019-04-03T03:31:10.773Z,58.90
2019-04-03T03:34:45.541Z,58.91
2019-04-03T03:37:34.317Z,58.71
2019-04-03T03:40:47.274Z,58.84
2019-04-03T03:43:54.569Z,58.96
2019-04-03T03:47:13.968Z,59.17
2019-04-03T03:50:36.779Z,59.36
2019-04-03T03:53:47.807Z,59.75
2019-04-03T03:56:56.626Z,59.67
2019-04-03T04:00:06.627Z,59.61
2019-04-03T04:03:16.806Z,59.76
2019-04-03T04:06:27.933Z,59.59
2019-04-03T04:09:35.952Z,59.51
2019-04-03T04:12:46.328Z,59.50
2019-04-03T04:15:55.330Z,59.39
2019-04-03T04:19:04.433Z,59.19
2019-04-03T04:22:15.578Z,59.20
2019-04-03T04:25:23.781Z,59.07
2019-04-03T04:28:32.924Z,59.16
2019-04-03T04:31:43.255Z,59.13
2019-04-03T04:34:51.899Z,59.39
2019-04-03T04:38:00.693Z,59.55
2019-04-03T04:41:09.354Z,59.57
2019-04-03T04:44:18.050Z,59.55
2019-04-03T04:47:26.824Z,59.60
2019-04-03T04:50:35.565Z,59.66
2019-04-03T04:53:44.204Z,59.64
2019-04-03T04:56:52.967Z,59.75
2019-04-03T05:00:06.771Z,59.65
2019-04-03T05:03:15.402Z,59.42
2019-04-03T05:06:24.090Z,59.27
2019-04-03T05:09:34.645Z,59.23
2019-04-03T05:12:45.317Z,59.48
2019-04-03T05:16:03.810Z,59.33
2019-04-03T05:19:22.768Z,59.69
2019-04-03T05:22:31.478Z,59.68
2019-04-03T05:25:40.340Z,59.78
2019-04-03T05:28:57.052Z,59.70
2019-04-03T05:31:59.373Z,59.75
2019-04-03T05:35:08.083Z,59.78
2019-04-03T05:38:16.828Z,59.74
2019-04-03T05:41:27.543Z,59.48
2019-04-03T05:44:35.870Z,59.53
2019-04-03T05:47:44.838Z,59.63
2019-04-03T05:50:53.591Z,59.89
2019-04-03T05:54:02.156Z,59.77
2019-04-03T05:57:13.367Z,59.92
2019-04-03T06:00:21.555Z,59.78
2019-04-03T06:03:40.523Z,59.52
2019-04-03T06:06:40.689Z,59.33
2019-04-03T06:09:49.341Z,59.10
2019-04-03T06:12:58.154Z,58.83
2019-04-03T06:16:06.723Z,58.01
2019-04-03T06:19:15.366Z,57.88
2019-04-03T06:22:24.086Z,58.07
2019-04-03T06:25:42.940Z,58.10
2019-04-03T06:28:51.763Z,57.87
2019-04-03T06:32:00.705Z,57.73
2019-04-03T06:35:13.340Z,57.55
2019-04-03T06:38:22.367Z,57.61
2019-04-03T06:41:31.522Z,57.25
2019-04-03T06:44:40.457Z,57.15
2019-04-03T06:47:49.151Z,57.19
2019-04-03T06:50:58.215Z,57.18
2019-04-03T06:54:08.207Z,56.97
2019-04-03T06:57:17.045Z,56.64
2019-04-03T07:00:25.724Z,56.50
2019-04-03T07:03:35.069Z,56.18
2019-04-03T07:06:45.247Z,55.76
2019-04-03T07:10:08.335Z,55.43
2019-04-03T07:13:29.116Z,55.97
2019-04-03T07:16:38.570Z,55.84
2019-04-03T07:19:57.064Z,55.27
2019-04-03T07:23:06.173Z,55.20
2019-04-03T07:26:25.287Z,54.56
2019-04-03T07:29:33.985Z,54.83
2019-04-03T07:32:42.774Z,54.63
2019-04-03T07:35:51.428Z,54.92
2019-04-03T07:39:00.049Z,54.38
2019-04-03T07:42:08.669Z,53.93
2019-04-03T07:45:17.443Z,53.75
2019-04-03T07:48:26.365Z,53.95
2019-04-03T07:51:35.844Z,53.80
2019-04-03T07:54:44.761Z,53.78
2019-04-03T07:58:03.954Z,53.58
2019-04-03T08:01:12.647Z,53.68
2019-04-03T08:04:21.986Z,53.43
2019-04-03T08:07:31.622Z,53.37
2019-04-03T08:10:40.306Z,53.46
2019-04-03T08:13:48.997Z,52.94
2019-04-03T08:16:57.535Z,53.19
2019-04-03T08:20:07.687Z,52.72
2019-04-03T08:23:27.565Z,52.37
2019-04-03T08:26:36.264Z,52.11
2019-04-03T08:29:44.958Z,52.33
2019-04-03T08:32:53.785Z,51.83
2019-04-03T08:36:02.478Z,52.59
2019-04-03T08:39:11.216Z,52.68
2019-04-03T08:42:19.830Z,53.67
2019-04-03T08:45:39.749Z,53.62
2019-04-03T08:48:48.576Z,54.24
2019-04-03T08:51:57.346Z,52.94
2019-04-03T08:55:06.096Z,54.13
2019-04-03T08:58:14.743Z,53.53
2019-04-03T09:01:23.392Z,53.70
2019-04-03T09:04:32.057Z,53.26
2019-04-03T09:07:40.702Z,52.33
2019-04-03T09:10:49.343Z,52.19
2019-04-03T09:13:58.001Z,52.86
2019-04-03T09:17:06.654Z,51.72
2019-04-03T09:20:25.609Z,51.36
2019-04-03T09:23:34.148Z,52.04
2019-04-03T09:26:42.716Z,52.58
2019-04-03T09:29:51.331Z,52.39
2019-04-03T09:33:00.531Z,53.10
2019-04-03T09:36:09.548Z,53.47
2019-04-03T09:39:18.078Z,53.68
2019-04-03T09:42:26.721Z,53.29
2019-04-03T09:45:35.571Z,54.75
2019-04-03T09:48:44.587Z,55.08
2019-04-03T09:51:53.853Z,56.15
2019-04-03T09:55:13.250Z,56.85
2019-04-03T09:58:32.923Z,58.00
2019-04-03T10:01:42.781Z,57.95
2019-04-03T10:04:51.436Z,59.08
2019-04-03T10:08:00.416Z,59.52
2019-04-03T10:11:08.250Z,60.21
2019-04-03T10:14:17.449Z,61.00
2019-04-03T10:17:26.232Z,60.98
2019-04-03T10:20:34.881Z,60.88
2019-04-03T10:23:43.529Z,61.27
2019-04-03T10:26:52.148Z,62.15
2019-04-03T10:30:06.865Z,62.31
2019-04-03T10:33:15.426Z,63.21
2019-04-03T10:36:24.165Z,63.55
2019-04-03T10:39:32.809Z,64.12
2019-04-03T10:42:41.570Z,64.53
2019-04-03T10:45:50.429Z,64.24
2019-04-03T10:49:00.404Z,63.80
2019-04-03T10:52:12.632Z,63.97
2019-04-03T10:55:20.251Z,64.30
2019-04-03T10:58:29.049Z,63.79
2019-04-03T11:01:37.808Z,63.94
2019-04-03T11:04:46.497Z,63.47
2019-04-03T11:07:56.329Z,63.45
2019-04-03T11:11:05.154Z,63.96
2019-04-03T11:14:14.047Z,63.52
2019-04-03T11:17:25.116Z,63.58
2019-04-03T11:20:35.673Z,63.66
2019-04-03T11:23:45.208Z,63.82
2019-04-03T11:26:53.665Z,63.34
2019-04-03T11:30:02.417Z,63.55
2019-04-03T11:33:13.433Z,63.43
2019-04-03T11:36:31.704Z,61.94
2019-04-03T11:39:40.473Z,61.81
2019-04-03T11:43:01.134Z,60.44
2019-04-03T11:46:09.667Z,59.45
2019-04-03T11:49:19.984Z,59.75
2019-04-03T11:52:28.752Z,59.14
2019-04-03T11:55:37.877Z,59.77
2019-04-03T11:58:46.842Z,59.76
2019-04-03T12:01:56.662Z,59.75
2019-04-03T12:05:06.105Z,60.26
2019-04-03T12:08:15.969Z,60.60
2019-04-03T12:11:24.801Z,61.11
2019-04-03T12:14:33.536Z,61.66
2019-04-03T12:17:42.206Z,62.51
2019-04-03T12:20:51.017Z,63.15
2019-04-03T12:23:59.647Z,62.45
2019-04-03T12:27:08.368Z,62.77
2019-04-03T12:30:17.345Z,62.34
2019-04-03T12:33:25.942Z,62.15
2019-04-03T12:36:46.109Z,61.98
2019-04-03T12:39:55.257Z,61.93
2019-04-03T12:43:04.296Z,61.98
2019-04-03T12:46:41.026Z,62.31
2019-04-03T12:49:49.082Z,61.39
2019-04-03T12:52:58.224Z,60.27
2019-04-03T12:56:08.725Z,59.68
2019-04-03T12:59:20.243Z,58.57
2019-04-03T13:02:27.888Z,57.48
2019-04-03T13:05:38.052Z,56.21
2019-04-03T13:08:46.920Z,54.62
2019-04-03T13:11:55.599Z,51.19
2019-04-03T13:15:06.087Z,49.77
2019-04-03T13:18:14.968Z,50.95
2019-04-03T13:21:23.835Z,51.53
2019-04-03T13:24:32.908Z,51.18
2019-04-03T13:27:41.821Z,51.08
2019-04-03T13:30:50.579Z,51.48
2019-04-03T13:33:59.225Z,51.62
2019-04-03T13:37:07.849Z,52.32
2019-04-03T13:40:16.728Z,51.78
2019-04-03T13:43:25.707Z,51.55
2019-04-03T13:46:45.362Z,52.73
2019-04-03T13:50:05.144Z,52.20
2019-04-03T13:53:13.953Z,52.38
2019-04-03T13:56:32.627Z,52.77
2019-04-03T13:59:41.525Z,53.44
2019-04-03T14:02:50.588Z,54.11
2019-04-03T14:06:09.757Z,54.64
2019-04-03T14:09:19.587Z,55.11
2019-04-03T14:12:28.267Z,55.61
2019-04-03T14:15:36.984Z,54.53
2019-04-03T14:18:45.862Z,54.67
2019-04-03T14:21:54.633Z,54.68
2019-04-03T14:25:03.376Z,53.90
2019-04-03T14:28:11.998Z,53.06
2019-04-03T14:31:32.954Z,53.98
2019-04-03T14:34:31.230Z,54.15
2019-04-03T14:37:40.058Z,54.26
2019-04-03T14:40:48.795Z,54.58
2019-04-03T14:43:57.483Z,54.50
2019-04-03T14:47:06.212Z,54.32
2019-04-03T14:50:25.201Z,54.37
2019-04-03T14:53:34.959Z,54.78
2019-04-03T14:56:43.676Z,54.99
2019-04-03T14:59:52.222Z,54.33
2019-04-03T15:03:00.977Z,54.92
2019-04-03T15:06:09.754Z,54.83
2019-04-03T15:09:18.266Z,55.65
2019-04-03T15:12:39.796Z,55.10
2019-04-03T15:15:47.596Z,54.92
2019-04-03T15:18:56.327Z,55.13
2019-04-03T15:22:05.034Z,55.08
2019-04-03T15:25:15.070Z,55.09
2019-04-03T15:28:24.157Z,54.63
2019-04-03T15:31:32.872Z,54.67
2019-04-03T15:34:41.501Z,54.21
2019-04-03T15:37:50.402Z,54.56
2019-04-03T15:40:59.828Z,54.93
2019-04-03T15:44:08.484Z,54.85
2019-04-03T15:47:20.533Z,54.76
2019-04-03T15:50:28.551Z,55.22
2019-04-03T15:53:38.156Z,55.35
2019-04-03T15:56:46.839Z,55.05
2019-04-03T15:59:55.535Z,55.24
2019-04-03T16:03:04.207Z,55.27
2019-04-03T16:06:13.053Z,55.37
2019-04-03T16:09:22.275Z,55.03
2019-04-03T16:12:43.141Z,55.11
2019-04-03T16:15:54.858Z,54.79
2019-04-03T16:19:02.187Z,54.52
2019-04-03T16:22:11.581Z,53.36
2019-04-03T16:25:20.403Z,52.72
2019-04-03T16:28:29.675Z,52.90
2019-04-03T16:31:39.564Z,53.03
2019-04-03T16:34:58.385Z,53.25
2019-04-03T16:38:07.160Z,53.62
2019-04-03T16:41:15.801Z,53.29
2019-04-03T16:44:26.264Z,53.39
2019-04-03T16:47:34.752Z,53.72
2019-04-03T16:50:43.366Z,53.89
2019-04-03T16:53:52.042Z,54.05
2019-04-03T16:57:03.473Z,54.14
2019-04-03T17:00:13.374Z,54.07
2019-04-03T17:03:21.902Z,54.50
2019-04-03T17:06:30.526Z,54.55
2019-04-03T17:09:39.529Z,54.63
2019-04-03T17:12:50.081Z,54.92
2019-04-03T17:15:58.564Z,55.04
2019-04-03T17:19:07.356Z,55.41
2019-04-03T17:22:15.967Z,55.76
2019-04-03T17:25:26.969Z,55.74
2019-04-03T17:28:34.949Z,55.84
2019-04-03T17:31:57.156Z,55.79
2019-04-03T17:35:06.738Z,55.88
2019-04-03T17:38:25.161Z,55.99
2019-04-03T17:41:33.788Z,56.19
2019-04-03T17:44:42.834Z,56.25
2019-04-03T17:47:54.033Z,56.30
2019-04-03T17:51:03.124Z,56.38
2019-04-03T17:54:13.968Z,56.46
2019-04-03T17:57:22.715Z,56.46
2019-04-03T18:00:31.626Z,56.41
2019-04-03T18:03:40.243Z,56.35
2019-04-03T18:06:48.867Z,56.40
2019-04-03T18:09:57.501Z,56.07
2019-04-03T18:13:06.339Z,56.29
2019-04-03T18:16:14.972Z,56.23
2019-04-03T18:19:23.741Z,56.19
2019-04-03T18:22:32.280Z,56.58
2019-04-03T18:25:40.939Z,56.43
2019-04-03T18:28:59.749Z,56.66
2019-04-03T18:32:08.556Z,56.46
2019-04-03T18:35:17.494Z,56.80
2019-04-03T18:38:26.046Z,56.99
2019-04-03T18:41:34.685Z,57.05
2019-04-03T18:44:43.364Z,57.24
2019-04-03T18:47:51.992Z,57.39
2019-04-03T18:51:00.526Z,57.52
2019-04-03T18:54:09.794Z,57.71
2019-04-03T18:57:19.469Z,57.70
2019-04-03T19:00:38.320Z,57.86
2019-04-03T19:03:46.961Z,58.00
2019-04-03T19:06:55.724Z,58.14
2019-04-03T19:10:07.398Z,58.36
2019-04-03T19:13:15.007Z,58.48
2019-04-03T19:16:29.283Z,58.48
2019-04-03T19:19:33.937Z,58.77
2019-04-03T19:22:42.578Z,58.79
2019-04-03T19:25:51.209Z,58.88
2019-04-03T19:28:59.901Z,59.10
2019-04-03T19:32:11.835Z,59.19
2019-04-03T19:35:18.775Z,59.21
2019-04-03T19:38:27.674Z,59.12
2019-04-03T19:41:46.522Z,59.16
2019-04-03T19:44:55.223Z,59.16
2019-04-03T19:48:03.993Z,58.98
2019-04-03T19:51:12.691Z,59.07
2019-04-03T19:54:21.424Z,58.96
2019-04-03T19:57:31.888Z,59.16
2019-04-03T20:00:40.550Z,59.27
2019-04-03T20:03:49.203Z,59.43
2019-04-03T20:06:57.814Z,59.60
2019-04-03T20:10:09.003Z,59.89
2019-04-03T20:13:17.561Z,59.93
2019-04-03T20:16:26.287Z,59.91
2019-04-03T20:19:34.946Z,59.94
2019-04-03T20:22:43.549Z,59.96
2019-04-03T20:25:51.184Z,60.06
2019-04-03T20:29:02.138Z,60.32
2019-04-03T20:32:10.067Z,60.30
2019-04-03T20:35:18.909Z,60.55
2019-04-03T20:38:27.978Z,60.86
2019-04-03T20:41:36.749Z,60.96
2019-04-03T20:44:47.939Z,61.06
2019-04-03T20:47:57.243Z,61.15
2019-04-03T20:51:08.785Z,61.13
2019-04-03T20:54:16.379Z,61.11
2019-04-03T20:57:25.041Z,61.00
2019-04-03T21:00:33.793Z,61.04
2019-04-03T21:03:43.751Z,60.96
2019-04-03T21:06:52.702Z,60.76
2019-04-03T21:10:12.474Z,60.74
2019-04-03T21:13:21.004Z,60.93
2019-04-03T21:16:33.446Z,60.88
2019-04-03T21:19:41.179Z,60.92
2019-04-03T21:22:50.754Z,60.80
2019-04-03T21:25:58.859Z,60.59
2019-04-03T21:29:07.572Z,60.75
2019-04-03T21:32:16.113Z,60.46
2019-04-03T21:35:25.452Z,60.33
2019-04-03T21:38:34.362Z,60.31
2019-04-03T21:41:55.995Z,60.19
2019-04-03T21:45:07.304Z,60.06
2019-04-03T21:48:14.480Z,59.98
2019-04-03T21:51:35.135Z,60.07
2019-04-03T21:54:43.718Z,60.01
2019-04-03T21:57:52.316Z,59.80
2019-04-03T22:01:22.403Z,59.86
2019-04-03T22:04:30.958Z,60.00
2019-04-03T22:07:39.610Z,60.14
2019-04-03T22:10:50.365Z,60.27
2019-04-03T22:13:58.384Z,60.28
2019-04-03T22:17:06.935Z,60.31
2019-04-03T22:20:15.560Z,60.08
2019-04-03T22:23:37.072Z,60.00
2019-04-03T22:26:45.762Z,59.70
2019-04-03T22:29:54.403Z,59.72
2019-04-03T22:33:03.086Z,59.79
2019-04-03T22:36:11.569Z,59.61
2019-04-03T22:39:20.281Z,59.60
2019-04-03T22:42:28.912Z,59.41
2019-04-03T22:45:37.508Z,59.42
2019-04-03T22:48:46.220Z,59.41
2019-04-03T22:52:05.136Z,59.56
2019-04-03T22:55:14.889Z,59.93
2019-04-03T22:58:23.976Z,60.14
2019-04-03T23:01:32.647Z,59.94
2019-04-03T23:04:42.102Z,59.91
2019-04-03T23:07:52.096Z,59.87
2019-04-03T23:11:01.522Z,59.67
2019-04-03T23:14:20.585Z,59.68
2019-04-03T23:17:29.330Z,59.29
2019-04-03T23:20:48.703Z,58.72
2019-04-03T23:23:58.416Z,58.64
2019-04-03T23:27:07.072Z,58.20
2019-04-03T23:30:16.209Z,57.56
2019-04-03T23:33:24.868Z,57.11
2019-04-03T23:36:33.523Z,57.47
2019-04-03T23:39:42.613Z,58.83
2019-04-03T23:42:51.299Z,59.53
2019-04-03T23:46:00.193Z,60.59
2019-04-03T23:49:09.340Z,61.08
2019-04-03T23:52:17.955Z,61.41
2019-04-03T23:55:26.602Z,62.51
2019-04-03T23:58:35.245Z,63.35
